sensor_id;sensor_type;location;lat;lon;timestamp;temperature;humidity
24645;DHT22;12780;45.502;9.146;2022-07-21T00:01:23;30.80;99.90
24645;DHT22;12780;45.502;9.146;2022-07-21T00:03:49;30.70;99.90
24645;DHT22;12780;45.502;9.146;2022-07-21T00:06:15;30.70;99.90
24645;DHT22;12780;45.502;9.146;2022-07-21T00:08:40;30.70;99.90
24645;DHT22;12780;45.502;9.146;2022-07-21T00:11:06;30.60;99.90
24645;DHT22;12780;45.502;9.146;2022-07-21T00:13:32;30.60;99.90
24645;DHT22;12780;45.502;9.146;2022-07-21T00:15:58;30.50;99.90
24645;DHT22;12780;45.502;9.146;2022-07-21T00:18:24;30.50;99.90
24645;DHT22;12780;45.502;9.146;2022-07-21T00:20:56;30.50;99.90
24645;DHT22;12780;45.502;9.146;2022-07-21T00:23:23;30.40;99.90
24645;DHT22;12780;45.502;9.146;2022-07-21T00:25:49;30.40;99.90
24645;DHT22;12780;45.502;9.146;2022-07-21T00:28:15;30.30;99.90
24645;DHT22;12780;45.502;9.146;2022-07-21T00:30:40;30.30;99.90
24645;DHT22;12780;45.502;9.146;2022-07-21T00:33:06;30.30;99.90
24645;DHT22;12780;45.502;9.146;2022-07-21T00:35:32;30.30;99.90
24645;DHT22;12780;45.502;9.146;2022-07-21T00:37:57;30.30;99.90
24645;DHT22;12780;45.502;9.146;2022-07-21T00:40:24;30.30;99.90
24645;DHT22;12780;45.502;9.146;2022-07-21T00:42:49;30.20;99.90
24645;DHT22;12780;45.502;9.146;2022-07-21T00:45:15;30.20;99.90
24645;DHT22;12780;45.502;9.146;2022-07-21T00:47:42;30.10;99.90
24645;DHT22;12780;45.502;9.146;2022-07-21T00:50:11;30.10;99.90
24645;DHT22;12780;45.502;9.146;2022-07-21T00:52:37;30.10;99.90
24645;DHT22;12780;45.502;9.146;2022-07-21T00:55:04;30.00;99.90
24645;DHT22;12780;45.502;9.146;2022-07-21T00:57:30;30.00;99.90
24645;DHT22;12780;45.502;9.146;2022-07-21T00:59:56;30.00;99.90
24645;DHT22;12780;45.502;9.146;2022-07-21T01:02:22;29.90;99.90
24645;DHT22;12780;45.502;9.146;2022-07-21T01:04:48;30.00;99.90
24645;DHT22;12780;45.502;9.146;2022-07-21T01:07:14;30.00;99.90
24645;DHT22;12780;45.502;9.146;2022-07-21T01:09:41;29.90;99.90
24645;DHT22;12780;45.502;9.146;2022-07-21T01:12:07;29.90;99.90
24645;DHT22;12780;45.502;9.146;2022-07-21T01:14:33;29.90;99.90
24645;DHT22;12780;45.502;9.146;2022-07-21T01:17:01;29.90;99.90
24645;DHT22;12780;45.502;9.146;2022-07-21T01:19:27;29.90;99.90
24645;DHT22;12780;45.502;9.146;2022-07-21T01:21:53;29.90;99.90
24645;DHT22;12780;45.502;9.146;2022-07-21T01:24:18;29.90;99.90
24645;DHT22;12780;45.502;9.146;2022-07-21T01:26:49;29.90;99.90
24645;DHT22;12780;45.502;9.146;2022-07-21T01:29:16;29.80;99.90
24645;DHT22;12780;45.502;9.146;2022-07-21T01:31:44;29.80;99.90
24645;DHT22;12780;45.502;9.146;2022-07-21T01:34:10;29.90;99.90
24645;DHT22;12780;45.502;9.146;2022-07-21T01:36:36;29.90;99.90
24645;DHT22;12780;45.502;9.146;2022-07-21T01:39:04;29.90;99.90
24645;DHT22;12780;45.502;9.146;2022-07-21T01:41:48;29.80;99.90
24645;DHT22;12780;45.502;9.146;2022-07-21T01:44:14;29.80;99.90
24645;DHT22;12780;45.502;9.146;2022-07-21T01:46:42;29.90;99.90
24645;DHT22;12780;45.502;9.146;2022-07-21T01:49:10;29.90;99.90
24645;DHT22;12780;45.502;9.146;2022-07-21T01:51:36;29.90;99.90
24645;DHT22;12780;45.502;9.146;2022-07-21T01:54:03;29.90;99.90
24645;DHT22;12780;45.502;9.146;2022-07-21T01:56:29;29.90;99.90
24645;DHT22;12780;45.502;9.146;2022-07-21T01:58:56;29.90;99.90
24645;DHT22;12780;45.502;9.146;2022-07-21T02:01:23;29.90;99.90
24645;DHT22;12780;45.502;9.146;2022-07-21T02:03:52;29.80;99.90
24645;DHT22;12780;45.502;9.146;2022-07-21T02:06:17;29.80;99.90
24645;DHT22;12780;45.502;9.146;2022-07-21T02:08:43;29.80;99.90
24645;DHT22;12780;45.502;9.146;2022-07-21T02:11:10;29.70;99.90
24645;DHT22;12780;45.502;9.146;2022-07-21T02:13:36;29.70;99.90
24645;DHT22;12780;45.502;9.146;2022-07-21T02:16:02;29.70;99.90
24645;DHT22;12780;45.502;9.146;2022-07-21T02:18:28;29.70;99.90
24645;DHT22;12780;45.502;9.146;2022-07-21T02:20:54;29.60;99.90
24645;DHT22;12780;45.502;9.146;2022-07-21T02:23:21;29.60;99.90
24645;DHT22;12780;45.502;9.146;2022-07-21T02:25:47;29.60;99.90
24645;DHT22;12780;45.502;9.146;2022-07-21T02:28:13;29.50;99.90
24645;DHT22;12780;45.502;9.146;2022-07-21T02:30:39;29.50;99.90
24645;DHT22;12780;45.502;9.146;2022-07-21T02:33:05;29.50;99.90
24645;DHT22;12780;45.502;9.146;2022-07-21T02:35:31;29.40;99.90
24645;DHT22;12780;45.502;9.146;2022-07-21T02:37:56;29.40;99.90
24645;DHT22;12780;45.502;9.146;2022-07-21T02:40:22;29.40;99.90
24645;DHT22;12780;45.502;9.146;2022-07-21T02:42:48;29.30;99.90
24645;DHT22;12780;45.502;9.146;2022-07-21T02:45:14;29.30;99.90
24645;DHT22;12780;45.502;9.146;2022-07-21T02:48:01;29.30;99.90
24645;DHT22;12780;45.502;9.146;2022-07-21T02:50:30;29.20;99.90
24645;DHT22;12780;45.502;9.146;2022-07-21T02:53:00;29.20;99.90
24645;DHT22;12780;45.502;9.146;2022-07-21T02:55:27;29.20;99.90
24645;DHT22;12780;45.502;9.146;2022-07-21T03:00:37;29.30;99.90
24645;DHT22;12780;45.502;9.146;2022-07-21T03:03:04;29.30;99.90
24645;DHT22;12780;45.502;9.146;2022-07-21T03:05:30;29.20;99.90
24645;DHT22;12780;45.502;9.146;2022-07-21T03:07:55;29.20;99.90
24645;DHT22;12780;45.502;9.146;2022-07-21T03:10:21;29.20;99.90
24645;DHT22;12780;45.502;9.146;2022-07-21T03:12:47;29.20;99.90
24645;DHT22;12780;45.502;9.146;2022-07-21T03:15:12;29.20;99.90
24645;DHT22;12780;45.502;9.146;2022-07-21T03:17:38;29.10;99.90
24645;DHT22;12780;45.502;9.146;2022-07-21T03:20:04;29.10;99.90
24645;DHT22;12780;45.502;9.146;2022-07-21T03:22:30;29.10;99.90
24645;DHT22;12780;45.502;9.146;2022-07-21T03:24:55;29.00;99.90
24645;DHT22;12780;45.502;9.146;2022-07-21T03:27:21;29.00;99.90
24645;DHT22;12780;45.502;9.146;2022-07-21T03:29:47;28.90;99.90
24645;DHT22;12780;45.502;9.146;2022-07-21T03:32:12;28.90;99.90
24645;DHT22;12780;45.502;9.146;2022-07-21T03:34:38;28.90;99.90
24645;DHT22;12780;45.502;9.146;2022-07-21T03:37:03;28.90;99.90
24645;DHT22;12780;45.502;9.146;2022-07-21T03:39:29;28.90;99.90
24645;DHT22;12780;45.502;9.146;2022-07-21T03:41:55;28.90;99.90
24645;DHT22;12780;45.502;9.146;2022-07-21T03:44:20;28.90;99.90
24645;DHT22;12780;45.502;9.146;2022-07-21T03:46:46;28.90;99.90
24645;DHT22;12780;45.502;9.146;2022-07-21T03:49:12;28.90;99.90
24645;DHT22;12780;45.502;9.146;2022-07-21T03:51:37;28.90;99.90
24645;DHT22;12780;45.502;9.146;2022-07-21T03:54:03;28.90;99.90
24645;DHT22;12780;45.502;9.146;2022-07-21T03:56:29;28.90;99.90
24645;DHT22;12780;45.502;9.146;2022-07-21T03:58:54;28.90;99.90
24645;DHT22;12780;45.502;9.146;2022-07-21T04:01:20;28.90;99.90
24645;DHT22;12780;45.502;9.146;2022-07-21T04:03:46;28.90;99.90
24645;DHT22;12780;45.502;9.146;2022-07-21T04:06:11;28.90;99.90
24645;DHT22;12780;45.502;9.146;2022-07-21T04:08:38;28.90;99.90
24645;DHT22;12780;45.502;9.146;2022-07-21T04:11:04;28.90;99.90
24645;DHT22;12780;45.502;9.146;2022-07-21T04:13:29;28.90;99.90
24645;DHT22;12780;45.502;9.146;2022-07-21T04:15:55;28.90;99.90
24645;DHT22;12780;45.502;9.146;2022-07-21T04:18:21;28.90;99.90
24645;DHT22;12780;45.502;9.146;2022-07-21T04:20:46;28.80;99.90
24645;DHT22;12780;45.502;9.146;2022-07-21T04:23:12;28.80;99.90
24645;DHT22;12780;45.502;9.146;2022-07-21T04:25:37;28.80;99.90
24645;DHT22;12780;45.502;9.146;2022-07-21T04:28:04;28.80;99.90
24645;DHT22;12780;45.502;9.146;2022-07-21T04:30:30;28.80;99.90
24645;DHT22;12780;45.502;9.146;2022-07-21T04:32:56;28.80;99.90
24645;DHT22;12780;45.502;9.146;2022-07-21T04:35:22;28.80;99.90
24645;DHT22;12780;45.502;9.146;2022-07-21T04:37:48;28.80;99.90
24645;DHT22;12780;45.502;9.146;2022-07-21T04:40:14;28.80;99.90
24645;DHT22;12780;45.502;9.146;2022-07-21T04:42:40;28.80;99.90
24645;DHT22;12780;45.502;9.146;2022-07-21T04:45:08;28.80;99.90
24645;DHT22;12780;45.502;9.146;2022-07-21T04:47:42;28.80;99.90
24645;DHT22;12780;45.502;9.146;2022-07-21T04:50:09;28.80;99.90
24645;DHT22;12780;45.502;9.146;2022-07-21T04:52:35;28.80;99.90
24645;DHT22;12780;45.502;9.146;2022-07-21T04:55:00;28.80;99.90
24645;DHT22;12780;45.502;9.146;2022-07-21T04:57:26;28.90;99.90
24645;DHT22;12780;45.502;9.146;2022-07-21T04:59:52;28.90;99.90
24645;DHT22;12780;45.502;9.146;2022-07-21T05:02:17;28.90;99.90
24645;DHT22;12780;45.502;9.146;2022-07-21T05:04:43;29.00;99.90
24645;DHT22;12780;45.502;9.146;2022-07-21T05:07:08;29.00;99.90
24645;DHT22;12780;45.502;9.146;2022-07-21T05:09:34;29.10;99.90
24645;DHT22;12780;45.502;9.146;2022-07-21T05:12:00;29.10;99.90
24645;DHT22;12780;45.502;9.146;2022-07-21T05:14:25;29.10;99.90
24645;DHT22;12780;45.502;9.146;2022-07-21T05:16:51;29.10;99.90
24645;DHT22;12780;45.502;9.146;2022-07-21T05:19:16;29.10;99.90
24645;DHT22;12780;45.502;9.146;2022-07-21T05:21:42;29.20;99.90
24645;DHT22;12780;45.502;9.146;2022-07-21T05:24:08;29.20;99.90
24645;DHT22;12780;45.502;9.146;2022-07-21T05:26:34;29.20;99.90
24645;DHT22;12780;45.502;9.146;2022-07-21T05:29:00;29.30;99.90
24645;DHT22;12780;45.502;9.146;2022-07-21T05:31:25;29.30;99.90
24645;DHT22;12780;45.502;9.146;2022-07-21T05:33:51;29.30;99.90
24645;DHT22;12780;45.502;9.146;2022-07-21T05:36:16;29.30;99.90
24645;DHT22;12780;45.502;9.146;2022-07-21T05:38:43;29.30;99.90
24645;DHT22;12780;45.502;9.146;2022-07-21T05:41:09;29.30;99.90
24645;DHT22;12780;45.502;9.146;2022-07-21T05:43:35;29.30;99.90
24645;DHT22;12780;45.502;9.146;2022-07-21T05:46:00;29.30;99.90
24645;DHT22;12780;45.502;9.146;2022-07-21T05:48:26;29.30;99.90
24645;DHT22;12780;45.502;9.146;2022-07-21T05:50:52;29.30;99.90
24645;DHT22;12780;45.502;9.146;2022-07-21T05:53:17;29.30;99.90
24645;DHT22;12780;45.502;9.146;2022-07-21T05:55:43;29.30;99.90
24645;DHT22;12780;45.502;9.146;2022-07-21T05:58:08;29.30;99.90
24645;DHT22;12780;45.502;9.146;2022-07-21T06:00:34;29.40;99.90
24645;DHT22;12780;45.502;9.146;2022-07-21T06:03:00;29.40;99.90
24645;DHT22;12780;45.502;9.146;2022-07-21T06:05:25;29.40;99.90
24645;DHT22;12780;45.502;9.146;2022-07-21T06:07:51;29.50;99.90
24645;DHT22;12780;45.502;9.146;2022-07-21T06:10:17;29.40;99.90
24645;DHT22;12780;45.502;9.146;2022-07-21T06:12:43;29.40;99.90
24645;DHT22;12780;45.502;9.146;2022-07-21T06:15:10;29.50;99.90
24645;DHT22;12780;45.502;9.146;2022-07-21T06:17:41;29.50;99.90
24645;DHT22;12780;45.502;9.146;2022-07-21T06:20:08;29.50;99.90
24645;DHT22;12780;45.502;9.146;2022-07-21T06:22:35;29.50;99.90
24645;DHT22;12780;45.502;9.146;2022-07-21T06:25:00;29.40;99.90
24645;DHT22;12780;45.502;9.146;2022-07-21T06:27:26;29.50;99.90
24645;DHT22;12780;45.502;9.146;2022-07-21T06:29:52;29.50;99.90
24645;DHT22;12780;45.502;9.146;2022-07-21T06:32:17;29.50;99.90
24645;DHT22;12780;45.502;9.146;2022-07-21T06:34:43;29.60;99.90
24645;DHT22;12780;45.502;9.146;2022-07-21T06:37:08;29.70;99.90
24645;DHT22;12780;45.502;9.146;2022-07-21T06:39:34;29.80;99.90
24645;DHT22;12780;45.502;9.146;2022-07-21T06:42:05;29.90;99.90
24645;DHT22;12780;45.502;9.146;2022-07-21T06:44:31;29.90;99.90
24645;DHT22;12780;45.502;9.146;2022-07-21T06:46:56;30.00;99.90
24645;DHT22;12780;45.502;9.146;2022-07-21T06:49:23;30.00;99.90
24645;DHT22;12780;45.502;9.146;2022-07-21T06:51:48;30.00;99.90
24645;DHT22;12780;45.502;9.146;2022-07-21T06:54:14;30.10;99.90
24645;DHT22;12780;45.502;9.146;2022-07-21T06:56:39;30.10;99.90
24645;DHT22;12780;45.502;9.146;2022-07-21T06:59:05;30.20;99.90
24645;DHT22;12780;45.502;9.146;2022-07-21T07:01:31;30.20;99.90
24645;DHT22;12780;45.502;9.146;2022-07-21T07:03:57;30.20;99.90
24645;DHT22;12780;45.502;9.146;2022-07-21T07:06:22;30.20;99.90
24645;DHT22;12780;45.502;9.146;2022-07-21T07:08:48;30.20;99.90
24645;DHT22;12780;45.502;9.146;2022-07-21T07:11:14;30.30;99.90
24645;DHT22;12780;45.502;9.146;2022-07-21T07:13:40;30.30;99.90
24645;DHT22;12780;45.502;9.146;2022-07-21T07:16:05;30.40;99.90
24645;DHT22;12780;45.502;9.146;2022-07-21T07:18:31;30.50;99.90
24645;DHT22;12780;45.502;9.146;2022-07-21T07:20:57;30.50;99.90
24645;DHT22;12780;45.502;9.146;2022-07-21T07:23:22;30.60;99.90
24645;DHT22;12780;45.502;9.146;2022-07-21T07:25:48;30.60;99.90
24645;DHT22;12780;45.502;9.146;2022-07-21T07:28:15;30.70;99.90
24645;DHT22;12780;45.502;9.146;2022-07-21T07:30:41;30.80;99.90
24645;DHT22;12780;45.502;9.146;2022-07-21T07:33:06;30.80;99.90
24645;DHT22;12780;45.502;9.146;2022-07-21T07:35:32;30.90;99.90
24645;DHT22;12780;45.502;9.146;2022-07-21T07:37:57;31.10;99.90
24645;DHT22;12780;45.502;9.146;2022-07-21T07:40:23;31.10;99.90
24645;DHT22;12780;45.502;9.146;2022-07-21T07:42:49;31.20;99.90
24645;DHT22;12780;45.502;9.146;2022-07-21T07:45:15;31.30;99.90
24645;DHT22;12780;45.502;9.146;2022-07-21T07:47:42;31.40;99.90
24645;DHT22;12780;45.502;9.146;2022-07-21T07:50:09;31.40;99.90
24645;DHT22;12780;45.502;9.146;2022-07-21T07:52:37;31.50;99.90
24645;DHT22;12780;45.502;9.146;2022-07-21T07:55:04;31.50;99.90
24645;DHT22;12780;45.502;9.146;2022-07-21T07:57:46;31.60;99.90
24645;DHT22;12780;45.502;9.146;2022-07-21T08:00:18;31.50;99.90
24645;DHT22;12780;45.502;9.146;2022-07-21T08:02:50;31.60;99.90
24645;DHT22;12780;45.502;9.146;2022-07-21T08:05:16;31.60;99.90
24645;DHT22;12780;45.502;9.146;2022-07-21T08:07:42;31.70;99.90
24645;DHT22;12780;45.502;9.146;2022-07-21T08:10:09;31.70;99.90
24645;DHT22;12780;45.502;9.146;2022-07-21T08:12:37;31.70;99.90
24645;DHT22;12780;45.502;9.146;2022-07-21T08:15:04;31.80;99.90
24645;DHT22;12780;45.502;9.146;2022-07-21T08:17:30;31.80;99.90
24645;DHT22;12780;45.502;9.146;2022-07-21T08:19:56;31.90;99.90
24645;DHT22;12780;45.502;9.146;2022-07-21T08:22:22;31.90;99.90
24645;DHT22;12780;45.502;9.146;2022-07-21T08:24:47;31.90;99.90
24645;DHT22;12780;45.502;9.146;2022-07-21T08:27:13;32.00;99.90
24645;DHT22;12780;45.502;9.146;2022-07-21T08:29:39;31.90;99.90
24645;DHT22;12780;45.502;9.146;2022-07-21T08:32:04;31.90;99.90
24645;DHT22;12780;45.502;9.146;2022-07-21T08:34:30;31.90;99.90
24645;DHT22;12780;45.502;9.146;2022-07-21T08:36:56;31.90;99.90
24645;DHT22;12780;45.502;9.146;2022-07-21T08:39:22;32.10;99.90
24645;DHT22;12780;45.502;9.146;2022-07-21T08:41:50;32.20;99.90
24645;DHT22;12780;45.502;9.146;2022-07-21T08:44:16;32.20;99.90
24645;DHT22;12780;45.502;9.146;2022-07-21T08:46:42;32.30;99.90
24645;DHT22;12780;45.502;9.146;2022-07-21T08:49:09;32.30;99.90
24645;DHT22;12780;45.502;9.146;2022-07-21T08:51:35;32.40;99.90
24645;DHT22;12780;45.502;9.146;2022-07-21T08:54:02;32.40;99.90
24645;DHT22;12780;45.502;9.146;2022-07-21T08:56:28;32.30;99.90
24645;DHT22;12780;45.502;9.146;2022-07-21T08:58:54;32.40;99.90
24645;DHT22;12780;45.502;9.146;2022-07-21T09:01:20;32.40;99.90
24645;DHT22;12780;45.502;9.146;2022-07-21T09:03:50;32.60;99.90
24645;DHT22;12780;45.502;9.146;2022-07-21T09:06:16;32.70;99.90
24645;DHT22;12780;45.502;9.146;2022-07-21T09:08:43;32.80;99.90
24645;DHT22;12780;45.502;9.146;2022-07-21T09:11:12;32.80;99.90
24645;DHT22;12780;45.502;9.146;2022-07-21T09:13:42;32.80;99.90
24645;DHT22;12780;45.502;9.146;2022-07-21T09:16:09;32.90;99.90
24645;DHT22;12780;45.502;9.146;2022-07-21T09:18:47;32.90;99.90
24645;DHT22;12780;45.502;9.146;2022-07-21T09:21:15;32.90;99.90
24645;DHT22;12780;45.502;9.146;2022-07-21T09:23:41;32.90;99.90
24645;DHT22;12780;45.502;9.146;2022-07-21T09:26:07;33.00;99.90
24645;DHT22;12780;45.502;9.146;2022-07-21T09:28:33;33.00;99.90
24645;DHT22;12780;45.502;9.146;2022-07-21T09:31:10;33.00;99.90
24645;DHT22;12780;45.502;9.146;2022-07-21T09:33:44;33.10;99.90
24645;DHT22;12780;45.502;9.146;2022-07-21T09:36:14;33.20;99.90
24645;DHT22;12780;45.502;9.146;2022-07-21T09:38:53;33.30;99.90
24645;DHT22;12780;45.502;9.146;2022-07-21T09:41:25;33.30;99.90
24645;DHT22;12780;45.502;9.146;2022-07-21T09:43:53;33.40;99.90
24645;DHT22;12780;45.502;9.146;2022-07-21T09:46:25;33.40;99.90
24645;DHT22;12780;45.502;9.146;2022-07-21T09:48:56;33.40;99.90
24645;DHT22;12780;45.502;9.146;2022-07-21T09:51:35;33.40;99.90
24645;DHT22;12780;45.502;9.146;2022-07-21T09:54:08;33.30;99.90
24645;DHT22;12780;45.502;9.146;2022-07-21T09:56:37;33.40;99.90
24645;DHT22;12780;45.502;9.146;2022-07-21T09:59:05;33.30;99.90
24645;DHT22;12780;45.502;9.146;2022-07-21T10:01:31;33.40;99.90
24645;DHT22;12780;45.502;9.146;2022-07-21T10:03:58;33.50;99.90
24645;DHT22;12780;45.502;9.146;2022-07-21T10:06:27;33.50;99.90
24645;DHT22;12780;45.502;9.146;2022-07-21T10:08:55;33.50;99.90
24645;DHT22;12780;45.502;9.146;2022-07-21T10:11:22;33.60;99.90
24645;DHT22;12780;45.502;9.146;2022-07-21T10:13:48;33.70;99.90
24645;DHT22;12780;45.502;9.146;2022-07-21T10:16:15;33.70;99.90
24645;DHT22;12780;45.502;9.146;2022-07-21T10:18:58;33.80;99.90
24645;DHT22;12780;45.502;9.146;2022-07-21T10:21:46;33.80;99.90
24645;DHT22;12780;45.502;9.146;2022-07-21T10:24:14;33.90;99.90
24645;DHT22;12780;45.502;9.146;2022-07-21T10:27:03;34.00;99.90
24645;DHT22;12780;45.502;9.146;2022-07-21T10:32:18;34.00;99.90
24645;DHT22;12780;45.502;9.146;2022-07-21T10:34:44;34.00;99.90
24645;DHT22;12780;45.502;9.146;2022-07-21T10:37:10;34.10;99.90
24645;DHT22;12780;45.502;9.146;2022-07-21T10:39:37;34.10;99.90
24645;DHT22;12780;45.502;9.146;2022-07-21T10:42:16;34.20;99.90
24645;DHT22;12780;45.502;9.146;2022-07-21T10:44:46;34.30;99.90
24645;DHT22;12780;45.502;9.146;2022-07-21T10:47:20;34.40;99.90
24645;DHT22;12780;45.502;9.146;2022-07-21T10:49:50;34.40;99.90
24645;DHT22;12780;45.502;9.146;2022-07-21T10:58:15;34.50;99.90
24645;DHT22;12780;45.502;9.146;2022-07-21T11:03:22;34.60;99.90
24645;DHT22;12780;45.502;9.146;2022-07-21T11:14:12;34.80;99.90
24645;DHT22;12780;45.502;9.146;2022-07-21T11:16:56;34.90;99.90
24645;DHT22;12780;45.502;9.146;2022-07-21T11:19:47;35.10;99.90
24645;DHT22;12780;45.502;9.146;2022-07-21T11:22:23;35.20;99.90
24645;DHT22;12780;45.502;9.146;2022-07-21T11:25:01;35.20;99.90
24645;DHT22;12780;45.502;9.146;2022-07-21T11:27:30;35.10;99.90
24645;DHT22;12780;45.502;9.146;2022-07-21T11:30:00;35.10;99.90
24645;DHT22;12780;45.502;9.146;2022-07-21T11:32:26;35.00;99.90
24645;DHT22;12780;45.502;9.146;2022-07-21T11:34:56;34.90;99.90
24645;DHT22;12780;45.502;9.146;2022-07-21T11:40:07;35.00;99.90
24645;DHT22;12780;45.502;9.146;2022-07-21T11:42:33;35.10;99.90
24645;DHT22;12780;45.502;9.146;2022-07-21T11:44:59;35.10;99.90
24645;DHT22;12780;45.502;9.146;2022-07-21T11:47:25;35.10;99.90
24645;DHT22;12780;45.502;9.146;2022-07-21T11:49:53;35.20;99.90
24645;DHT22;12780;45.502;9.146;2022-07-21T11:52:27;35.40;99.90
24645;DHT22;12780;45.502;9.146;2022-07-21T11:54:55;35.60;99.90
24645;DHT22;12780;45.502;9.146;2022-07-21T11:57:22;35.70;99.90
24645;DHT22;12780;45.502;9.146;2022-07-21T11:59:49;35.80;99.90
24645;DHT22;12780;45.502;9.146;2022-07-21T12:04:42;36.00;99.90
24645;DHT22;12780;45.502;9.146;2022-07-21T12:09:40;36.30;99.90
24645;DHT22;12780;45.502;9.146;2022-07-21T12:12:06;36.30;99.90
24645;DHT22;12780;45.502;9.146;2022-07-21T12:17:07;36.30;99.90
24645;DHT22;12780;45.502;9.146;2022-07-21T12:19:33;36.30;99.90
24645;DHT22;12780;45.502;9.146;2022-07-21T12:21:59;36.30;99.90
24645;DHT22;12780;45.502;9.146;2022-07-21T12:24:49;36.40;99.90
24645;DHT22;12780;45.502;9.146;2022-07-21T12:27:16;36.50;99.90
24645;DHT22;12780;45.502;9.146;2022-07-21T12:29:44;36.50;99.90
24645;DHT22;12780;45.502;9.146;2022-07-21T12:32:10;36.50;99.90
24645;DHT22;12780;45.502;9.146;2022-07-21T12:34:52;36.50;99.90
24645;DHT22;12780;45.502;9.146;2022-07-21T12:37:20;36.30;99.90
24645;DHT22;12780;45.502;9.146;2022-07-21T12:40:03;36.30;99.90
24645;DHT22;12780;45.502;9.146;2022-07-21T12:42:34;36.50;99.90
24645;DHT22;12780;45.502;9.146;2022-07-21T12:45:09;36.50;99.90
24645;DHT22;12780;45.502;9.146;2022-07-21T12:47:37;36.70;99.90
24645;DHT22;12780;45.502;9.146;2022-07-21T12:50:08;36.80;99.90
24645;DHT22;12780;45.502;9.146;2022-07-21T12:52:35;37.00;99.90
24645;DHT22;12780;45.502;9.146;2022-07-21T12:55:01;37.00;99.90
24645;DHT22;12780;45.502;9.146;2022-07-21T12:57:28;37.10;99.90
24645;DHT22;12780;45.502;9.146;2022-07-21T12:59:55;37.10;99.90
24645;DHT22;12780;45.502;9.146;2022-07-21T13:02:21;37.00;99.90
24645;DHT22;12780;45.502;9.146;2022-07-21T13:04:47;37.00;99.90
24645;DHT22;12780;45.502;9.146;2022-07-21T13:07:13;37.00;99.90
24645;DHT22;12780;45.502;9.146;2022-07-21T13:09:38;37.10;99.90
24645;DHT22;12780;45.502;9.146;2022-07-21T13:12:04;37.10;99.90
24645;DHT22;12780;45.502;9.146;2022-07-21T13:14:31;37.10;99.90
24645;DHT22;12780;45.502;9.146;2022-07-21T13:16:57;37.00;99.90
24645;DHT22;12780;45.502;9.146;2022-07-21T13:19:24;37.00;99.90
24645;DHT22;12780;45.502;9.146;2022-07-21T13:21:50;36.90;99.90
24645;DHT22;12780;45.502;9.146;2022-07-21T13:24:16;36.90;99.90
24645;DHT22;12780;45.502;9.146;2022-07-21T13:26:41;36.80;99.90
24645;DHT22;12780;45.502;9.146;2022-07-21T13:29:07;36.70;99.90
24645;DHT22;12780;45.502;9.146;2022-07-21T13:31:34;36.70;99.90
24645;DHT22;12780;45.502;9.146;2022-07-21T13:34:03;36.70;99.90
24645;DHT22;12780;45.502;9.146;2022-07-21T13:36:32;36.70;99.90
24645;DHT22;12780;45.502;9.146;2022-07-21T13:38:57;36.70;99.90
24645;DHT22;12780;45.502;9.146;2022-07-21T13:41:24;36.70;99.90
24645;DHT22;12780;45.502;9.146;2022-07-21T13:43:50;36.70;99.90
24645;DHT22;12780;45.502;9.146;2022-07-21T13:46:16;36.50;99.90
24645;DHT22;12780;45.502;9.146;2022-07-21T13:48:42;36.40;99.90
24645;DHT22;12780;45.502;9.146;2022-07-21T13:51:07;36.30;99.90
24645;DHT22;12780;45.502;9.146;2022-07-21T13:53:34;36.30;99.90
24645;DHT22;12780;45.502;9.146;2022-07-21T13:56:00;36.20;99.90
24645;DHT22;12780;45.502;9.146;2022-07-21T13:58:25;36.10;99.90
24645;DHT22;12780;45.502;9.146;2022-07-21T14:00:51;36.00;99.90
24645;DHT22;12780;45.502;9.146;2022-07-21T14:03:18;36.00;99.90
24645;DHT22;12780;45.502;9.146;2022-07-21T14:05:44;36.10;99.90
24645;DHT22;12780;45.502;9.146;2022-07-21T14:08:10;36.20;99.90
24645;DHT22;12780;45.502;9.146;2022-07-21T14:10:35;36.10;99.90
24645;DHT22;12780;45.502;9.146;2022-07-21T14:13:01;36.20;99.90
24645;DHT22;12780;45.502;9.146;2022-07-21T14:15:27;36.10;99.90
24645;DHT22;12780;45.502;9.146;2022-07-21T14:17:53;36.10;99.90
24645;DHT22;12780;45.502;9.146;2022-07-21T14:20:18;36.10;99.90
24645;DHT22;12780;45.502;9.146;2022-07-21T14:22:44;36.00;99.90
24645;DHT22;12780;45.502;9.146;2022-07-21T14:25:10;36.00;99.90
24645;DHT22;12780;45.502;9.146;2022-07-21T14:27:49;36.00;99.90
24645;DHT22;12780;45.502;9.146;2022-07-21T14:30:16;36.00;99.90
24645;DHT22;12780;45.502;9.146;2022-07-21T14:32:44;36.00;99.90
24645;DHT22;12780;45.502;9.146;2022-07-21T14:35:10;36.00;99.90
24645;DHT22;12780;45.502;9.146;2022-07-21T14:37:37;36.00;99.90
24645;DHT22;12780;45.502;9.146;2022-07-21T14:40:04;36.00;99.90
24645;DHT22;12780;45.502;9.146;2022-07-21T14:42:30;36.00;99.90
24645;DHT22;12780;45.502;9.146;2022-07-21T14:44:55;36.00;99.90
24645;DHT22;12780;45.502;9.146;2022-07-21T14:47:23;36.00;99.90
24645;DHT22;12780;45.502;9.146;2022-07-21T14:49:49;35.90;99.90
24645;DHT22;12780;45.502;9.146;2022-07-21T14:52:15;35.80;99.90
24645;DHT22;12780;45.502;9.146;2022-07-21T14:54:40;35.80;99.90
24645;DHT22;12780;45.502;9.146;2022-07-21T14:57:06;35.90;99.90
24645;DHT22;12780;45.502;9.146;2022-07-21T14:59:32;35.90;99.90
24645;DHT22;12780;45.502;9.146;2022-07-21T15:01:58;35.80;99.90
24645;DHT22;12780;45.502;9.146;2022-07-21T15:04:23;35.90;99.90
24645;DHT22;12780;45.502;9.146;2022-07-21T15:06:50;35.90;99.90
24645;DHT22;12780;45.502;9.146;2022-07-21T15:09:15;35.90;99.90
24645;DHT22;12780;45.502;9.146;2022-07-21T15:11:41;35.90;99.90
24645;DHT22;12780;45.502;9.146;2022-07-21T15:14:07;35.80;99.90
24645;DHT22;12780;45.502;9.146;2022-07-21T15:16:33;35.80;99.90
24645;DHT22;12780;45.502;9.146;2022-07-21T15:18:59;35.80;99.90
24645;DHT22;12780;45.502;9.146;2022-07-21T15:21:25;35.90;99.90
24645;DHT22;12780;45.502;9.146;2022-07-21T15:23:50;35.80;99.90
24645;DHT22;12780;45.502;9.146;2022-07-21T15:26:16;35.90;99.90
24645;DHT22;12780;45.502;9.146;2022-07-21T15:28:42;35.90;99.90
24645;DHT22;12780;45.502;9.146;2022-07-21T15:31:08;35.90;99.90
24645;DHT22;12780;45.502;9.146;2022-07-21T15:33:34;35.90;99.90
24645;DHT22;12780;45.502;9.146;2022-07-21T15:36:00;35.90;99.90
24645;DHT22;12780;45.502;9.146;2022-07-21T15:38:26;35.90;99.90
24645;DHT22;12780;45.502;9.146;2022-07-21T15:40:52;35.90;99.90
24645;DHT22;12780;45.502;9.146;2022-07-21T15:43:18;35.80;99.90
24645;DHT22;12780;45.502;9.146;2022-07-21T15:45:45;35.70;99.90
24645;DHT22;12780;45.502;9.146;2022-07-21T15:48:11;35.70;99.90
24645;DHT22;12780;45.502;9.146;2022-07-21T15:50:36;35.70;99.90
24645;DHT22;12780;45.502;9.146;2022-07-21T15:53:02;35.70;99.90
24645;DHT22;12780;45.502;9.146;2022-07-21T15:55:28;35.60;99.90
24645;DHT22;12780;45.502;9.146;2022-07-21T15:57:54;35.60;99.90
24645;DHT22;12780;45.502;9.146;2022-07-21T16:00:21;35.60;99.90
24645;DHT22;12780;45.502;9.146;2022-07-21T16:02:47;35.60;99.90